createdAt,value
2018-07-10T00:14:55.673Z,82.82
2018-07-10T00:29:59.439Z,82.81
2018-07-10T00:45:03.232Z,82.39
2018-07-10T01:00:08.150Z,81.01
2018-07-10T01:15:12.049Z,79.78
2018-07-10T01:30:15.892Z,78.95
2018-07-10T01:45:19.831Z,79.90
2018-07-10T02:00:34.500Z,79.48
2018-07-10T02:15:38.269Z,78.13
2018-07-10T02:30:42.226Z,77.54
2018-07-10T02:45:46.114Z,78.10
2018-07-10T03:00:50.027Z,78.34
2018-07-10T03:15:54.052Z,77.74
2018-07-10T03:30:58.662Z,78.14
2018-07-10T03:46:06.359Z,73.08
2018-07-10T04:01:11.236Z,69.05
2018-07-10T04:16:15.131Z,72.26
2018-07-10T04:31:29.405Z,72.20
2018-07-10T04:46:38.878Z,71.31
2018-07-10T05:01:42.765Z,71.61
2018-07-10T05:16:46.654Z,71.82
2018-07-10T05:31:51.487Z,72.03
2018-07-10T05:46:59.566Z,70.41
2018-07-10T06:02:03.361Z,70.58
2018-07-10T06:32:20.504Z,71.94
2018-07-10T06:47:30.001Z,71.26
2018-07-10T07:02:35.062Z,66.44
2018-07-10T07:17:40.785Z,60.88
2018-07-10T07:32:44.480Z,54.28
2018-07-10T07:47:48.403Z,46.75
2018-07-10T08:02:52.252Z,42.37
2018-07-10T08:17:56.695Z,37.91
2018-07-10T08:33:00.574Z,35.50
2018-07-10T08:48:04.700Z,35.40
2018-07-10T09:03:08.518Z,34.58
2018-07-10T09:18:12.398Z,36.42
2018-07-10T09:33:16.224Z,40.33
2018-07-10T09:48:20.160Z,42.69
2018-07-10T10:03:24.438Z,41.27
2018-07-10T10:18:28.289Z,38.03
2018-07-10T10:33:32.117Z,43.86
2018-07-10T10:48:35.987Z,43.44
2018-07-10T11:03:39.894Z,46.40
2018-07-10T11:19:01.336Z,49.25
2018-07-10T11:34:05.802Z,43.97
2018-07-10T11:49:19.108Z,47.65
2018-07-10T12:04:22.998Z,48.93
2018-07-10T12:19:26.810Z,48.65
2018-07-10T12:34:30.630Z,48.39
2018-07-10T12:49:35.526Z,48.92
2018-07-10T13:04:39.621Z,48.40
2018-07-10T13:19:43.476Z,48.62
2018-07-10T13:34:47.777Z,49.79
2018-07-10T13:49:52.157Z,50.26
2018-07-10T14:04:56.166Z,49.35
2018-07-10T14:20:00.152Z,49.04
2018-07-10T14:35:03.957Z,50.35
2018-07-10T14:50:07.767Z,52.62
2018-07-10T15:05:11.600Z,53.71
2018-07-10T15:20:15.432Z,51.45
2018-07-10T15:35:19.273Z,52.38
2018-07-10T15:50:27.129Z,51.74
2018-07-10T16:05:35.693Z,51.34
2018-07-10T16:20:42.326Z,51.38
2018-07-10T16:35:46.217Z,52.06
2018-07-10T16:51:09.209Z,51.19
2018-07-10T17:06:13.087Z,51.08
2018-07-10T17:21:16.977Z,53.46
2018-07-10T17:36:20.818Z,57.26
2018-07-10T17:51:24.688Z,59.54
2018-07-10T18:06:28.557Z,61.23
2018-07-10T18:21:33.341Z,61.85
2018-07-10T18:36:37.271Z,63.40
2018-07-10T18:51:42.142Z,64.42
2018-07-10T19:06:45.919Z,64.56
2018-07-10T19:21:57.729Z,62.85
2018-07-10T19:37:03.859Z,62.68
2018-07-10T19:52:07.753Z,60.75
2018-07-10T20:07:26.218Z,52.62
2018-07-10T20:22:41.515Z,50.63
2018-07-10T20:37:47.764Z,49.87
2018-07-10T20:52:56.850Z,49.84
2018-07-10T21:08:04.166Z,50.08
2018-07-10T21:23:26.886Z,50.04
2018-07-10T21:38:54.739Z,49.60
2018-07-10T21:53:58.653Z,50.25
2018-07-10T22:09:02.535Z,49.83
2018-07-10T22:24:06.370Z,50.23
2018-07-10T22:39:10.266Z,49.87
2018-07-10T22:54:14.172Z,49.91
2018-07-10T23:09:17.981Z,49.80
2018-07-10T23:24:21.858Z,49.34
2018-07-10T23:39:57.452Z,50.14
2018-07-10T23:55:01.415Z,51.65
